sensor_id;sensor_type;location;lat;lon;timestamp;temperature;humidity
41324;DHT22;27073;51.128;4.220;2023-04-03T00:01:09;7.40;49.50
41324;DHT22;27073;51.128;4.220;2023-04-03T00:03:36;7.20;51.90
41324;DHT22;27073;51.128;4.220;2023-04-03T00:06:03;7.20;53.10
41324;DHT22;27073;51.128;4.220;2023-04-03T00:08:29;7.20;55.30
41324;DHT22;27073;51.128;4.220;2023-04-03T00:10:58;7.20;53.70
41324;DHT22;27073;51.128;4.220;2023-04-03T00:13:24;7.20;46.50
41324;DHT22;27073;51.128;4.220;2023-04-03T00:15:50;7.20;47.20
41324;DHT22;27073;51.128;4.220;2023-04-03T00:18:16;7.10;54.00
41324;DHT22;27073;51.128;4.220;2023-04-03T00:20:42;7.10;56.00
41324;DHT22;27073;51.128;4.220;2023-04-03T00:23:08;7.00;58.50
41324;DHT22;27073;51.128;4.220;2023-04-03T00:25:34;7.00;58.20
41324;DHT22;27073;51.128;4.220;2023-04-03T00:28:00;7.00;59.80
41324;DHT22;27073;51.128;4.220;2023-04-03T00:30:26;6.90;60.40
41324;DHT22;27073;51.128;4.220;2023-04-03T00:32:53;7.00;60.00
41324;DHT22;27073;51.128;4.220;2023-04-03T00:35:20;7.00;57.00
41324;DHT22;27073;51.128;4.220;2023-04-03T00:37:47;7.00;53.70
41324;DHT22;27073;51.128;4.220;2023-04-03T00:40:15;7.00;52.60
41324;DHT22;27073;51.128;4.220;2023-04-03T00:42:42;7.00;56.00
41324;DHT22;27073;51.128;4.220;2023-04-03T00:47:38;6.80;61.90
41324;DHT22;27073;51.128;4.220;2023-04-03T00:50:05;6.80;58.00
41324;DHT22;27073;51.128;4.220;2023-04-03T00:52:31;6.90;56.20
41324;DHT22;27073;51.128;4.220;2023-04-03T00:55:02;6.90;54.40
41324;DHT22;27073;51.128;4.220;2023-04-03T00:57:30;7.00;53.20
41324;DHT22;27073;51.128;4.220;2023-04-03T01:00:01;6.90;54.60
41324;DHT22;27073;51.128;4.220;2023-04-03T01:02:30;6.90;54.40
41324;DHT22;27073;51.128;4.220;2023-04-03T01:04:56;6.90;47.20
41324;DHT22;27073;51.128;4.220;2023-04-03T01:07:29;6.90;48.70
41324;DHT22;27073;51.128;4.220;2023-04-03T01:09:58;6.80;55.20
41324;DHT22;27073;51.128;4.220;2023-04-03T01:12:27;6.90;56.00
41324;DHT22;27073;51.128;4.220;2023-04-03T01:14:59;6.80;58.20
41324;DHT22;27073;51.128;4.220;2023-04-03T01:17:39;6.80;61.10
41324;DHT22;27073;51.128;4.220;2023-04-03T01:25:38;6.70;62.20
41324;DHT22;27073;51.128;4.220;2023-04-03T01:28:06;6.80;63.70
41324;DHT22;27073;51.128;4.220;2023-04-03T01:30:35;6.80;64.00
41324;DHT22;27073;51.128;4.220;2023-04-03T01:33:04;6.90;61.20
41324;DHT22;27073;51.128;4.220;2023-04-03T01:35:30;6.90;58.20
41324;DHT22;27073;51.128;4.220;2023-04-03T01:37:55;6.90;57.90
41324;DHT22;27073;51.128;4.220;2023-04-03T01:40:21;6.90;58.10
41324;DHT22;27073;51.128;4.220;2023-04-03T01:42:47;6.80;61.30
41324;DHT22;27073;51.128;4.220;2023-04-03T01:45:13;6.80;60.50
41324;DHT22;27073;51.128;4.220;2023-04-03T01:47:38;6.70;55.70
41324;DHT22;27073;51.128;4.220;2023-04-03T01:50:05;6.60;59.20
41324;DHT22;27073;51.128;4.220;2023-04-03T01:52:33;6.60;60.80
41324;DHT22;27073;51.128;4.220;2023-04-03T01:54:58;6.70;59.30
41324;DHT22;27073;51.128;4.220;2023-04-03T01:57:24;6.60;61.50
41324;DHT22;27073;51.128;4.220;2023-04-03T01:59:50;6.60;62.50
41324;DHT22;27073;51.128;4.220;2023-04-03T02:02:17;6.60;63.10
41324;DHT22;27073;51.128;4.220;2023-04-03T02:04:42;6.40;63.00
41324;DHT22;27073;51.128;4.220;2023-04-03T02:07:08;6.30;67.70
41324;DHT22;27073;51.128;4.220;2023-04-03T02:09:34;6.40;70.10
41324;DHT22;27073;51.128;4.220;2023-04-03T02:12:00;6.30;71.40
41324;DHT22;27073;51.128;4.220;2023-04-03T02:14:26;6.40;70.70
41324;DHT22;27073;51.128;4.220;2023-04-03T02:16:53;6.40;69.30
41324;DHT22;27073;51.128;4.220;2023-04-03T02:19:21;6.30;67.60
41324;DHT22;27073;51.128;4.220;2023-04-03T02:21:48;6.30;63.40
41324;DHT22;27073;51.128;4.220;2023-04-03T02:24:14;6.40;63.10
41324;DHT22;27073;51.128;4.220;2023-04-03T02:26:40;6.30;59.90
41324;DHT22;27073;51.128;4.220;2023-04-03T02:29:06;6.20;61.20
41324;DHT22;27073;51.128;4.220;2023-04-03T02:31:31;6.20;62.60
41324;DHT22;27073;51.128;4.220;2023-04-03T02:33:59;6.40;55.60
41324;DHT22;27073;51.128;4.220;2023-04-03T02:36:25;6.30;56.30
41324;DHT22;27073;51.128;4.220;2023-04-03T02:38:55;6.40;54.10
41324;DHT22;27073;51.128;4.220;2023-04-03T02:41:20;6.40;52.00
41324;DHT22;27073;51.128;4.220;2023-04-03T02:43:47;6.40;56.90
41324;DHT22;27073;51.128;4.220;2023-04-03T02:46:14;6.30;58.00
41324;DHT22;27073;51.128;4.220;2023-04-03T02:48:41;6.30;57.20
41324;DHT22;27073;51.128;4.220;2023-04-03T02:51:07;6.30;55.10
41324;DHT22;27073;51.128;4.220;2023-04-03T02:53:33;6.20;54.50
41324;DHT22;27073;51.128;4.220;2023-04-03T02:56:05;6.30;53.60
41324;DHT22;27073;51.128;4.220;2023-04-03T02:58:30;6.40;50.10
41324;DHT22;27073;51.128;4.220;2023-04-03T03:00:58;6.30;51.80
41324;DHT22;27073;51.128;4.220;2023-04-03T03:03:24;6.30;56.50
41324;DHT22;27073;51.128;4.220;2023-04-03T03:05:50;6.10;62.20
41324;DHT22;27073;51.128;4.220;2023-04-03T03:08:15;6.20;66.80
41324;DHT22;27073;51.128;4.220;2023-04-03T03:10:41;6.10;69.90
41324;DHT22;27073;51.128;4.220;2023-04-03T03:13:07;6.00;70.70
41324;DHT22;27073;51.128;4.220;2023-04-03T03:15:32;6.10;69.40
41324;DHT22;27073;51.128;4.220;2023-04-03T03:17:58;6.10;68.10
41324;DHT22;27073;51.128;4.220;2023-04-03T03:20:26;6.20;67.10
41324;DHT22;27073;51.128;4.220;2023-04-03T03:22:52;6.20;67.00
41324;DHT22;27073;51.128;4.220;2023-04-03T03:25:17;6.10;68.50
41324;DHT22;27073;51.128;4.220;2023-04-03T03:27:43;6.10;67.50
41324;DHT22;27073;51.128;4.220;2023-04-03T03:30:09;6.10;65.90
41324;DHT22;27073;51.128;4.220;2023-04-03T03:32:35;6.10;65.40
41324;DHT22;27073;51.128;4.220;2023-04-03T03:35:01;6.10;63.60
41324;DHT22;27073;51.128;4.220;2023-04-03T03:37:27;6.10;63.10
41324;DHT22;27073;51.128;4.220;2023-04-03T03:39:53;6.00;65.40
41324;DHT22;27073;51.128;4.220;2023-04-03T03:42:19;6.00;66.80
41324;DHT22;27073;51.128;4.220;2023-04-03T03:44:44;6.10;67.50
41324;DHT22;27073;51.128;4.220;2023-04-03T03:47:11;6.10;66.30
41324;DHT22;27073;51.128;4.220;2023-04-03T03:49:37;6.10;64.90
41324;DHT22;27073;51.128;4.220;2023-04-03T03:52:03;6.20;63.10
41324;DHT22;27073;51.128;4.220;2023-04-03T03:54:29;6.10;64.50
41324;DHT22;27073;51.128;4.220;2023-04-03T03:56:54;6.20;62.00
41324;DHT22;27073;51.128;4.220;2023-04-03T03:59:23;6.20;58.40
41324;DHT22;27073;51.128;4.220;2023-04-03T04:01:48;6.00;58.70
41324;DHT22;27073;51.128;4.220;2023-04-03T04:04:14;6.10;57.10
41324;DHT22;27073;51.128;4.220;2023-04-03T04:06:40;6.10;57.30
41324;DHT22;27073;51.128;4.220;2023-04-03T04:09:09;6.10;60.10
41324;DHT22;27073;51.128;4.220;2023-04-03T04:11:35;5.90;62.10
41324;DHT22;27073;51.128;4.220;2023-04-03T04:14:01;6.00;63.40
41324;DHT22;27073;51.128;4.220;2023-04-03T04:16:29;6.00;61.90
41324;DHT22;27073;51.128;4.220;2023-04-03T04:18:57;5.90;65.10
41324;DHT22;27073;51.128;4.220;2023-04-03T04:21:24;5.90;66.30
41324;DHT22;27073;51.128;4.220;2023-04-03T04:23:51;5.90;68.30
41324;DHT22;27073;51.128;4.220;2023-04-03T04:26:18;5.90;68.90
41324;DHT22;27073;51.128;4.220;2023-04-03T04:28:44;5.90;68.30
41324;DHT22;27073;51.128;4.220;2023-04-03T04:31:10;5.90;69.20
41324;DHT22;27073;51.128;4.220;2023-04-03T04:33:36;5.90;67.60
41324;DHT22;27073;51.128;4.220;2023-04-03T04:36:04;5.80;68.20
41324;DHT22;27073;51.128;4.220;2023-04-03T04:38:30;5.80;69.40
41324;DHT22;27073;51.128;4.220;2023-04-03T04:40:56;5.80;72.10
41324;DHT22;27073;51.128;4.220;2023-04-03T04:43:22;5.80;71.50
41324;DHT22;27073;51.128;4.220;2023-04-03T04:46:03;5.80;70.60
41324;DHT22;27073;51.128;4.220;2023-04-03T04:48:34;5.80;71.90
41324;DHT22;27073;51.128;4.220;2023-04-03T04:51:01;5.60;74.10
41324;DHT22;27073;51.128;4.220;2023-04-03T04:53:27;5.70;74.00
41324;DHT22;27073;51.128;4.220;2023-04-03T04:55:54;5.70;72.80
41324;DHT22;27073;51.128;4.220;2023-04-03T04:58:20;5.70;74.70
41324;DHT22;27073;51.128;4.220;2023-04-03T05:00:47;5.70;74.20
41324;DHT22;27073;51.128;4.220;2023-04-03T05:03:13;5.60;75.80
41324;DHT22;27073;51.128;4.220;2023-04-03T05:05:39;5.60;76.40
41324;DHT22;27073;51.128;4.220;2023-04-03T05:08:05;5.70;74.80
41324;DHT22;27073;51.128;4.220;2023-04-03T05:10:31;5.70;74.10
41324;DHT22;27073;51.128;4.220;2023-04-03T05:12:58;5.60;77.30
41324;DHT22;27073;51.128;4.220;2023-04-03T05:15:24;5.60;76.50
41324;DHT22;27073;51.128;4.220;2023-04-03T05:17:49;5.60;77.60
41324;DHT22;27073;51.128;4.220;2023-04-03T05:20:17;5.60;78.00
41324;DHT22;27073;51.128;4.220;2023-04-03T05:22:44;5.70;77.10
41324;DHT22;27073;51.128;4.220;2023-04-03T05:25:10;5.70;77.40
41324;DHT22;27073;51.128;4.220;2023-04-03T05:27:37;5.70;77.60
41324;DHT22;27073;51.128;4.220;2023-04-03T05:30:04;5.70;77.90
41324;DHT22;27073;51.128;4.220;2023-04-03T05:32:32;5.60;80.70
41324;DHT22;27073;51.128;4.220;2023-04-03T05:35:11;5.50;82.30
41324;DHT22;27073;51.128;4.220;2023-04-03T05:37:38;5.50;79.60
41324;DHT22;27073;51.128;4.220;2023-04-03T05:40:05;5.50;80.80
41324;DHT22;27073;51.128;4.220;2023-04-03T05:42:32;5.50;81.80
41324;DHT22;27073;51.128;4.220;2023-04-03T05:44:58;5.60;81.80
41324;DHT22;27073;51.128;4.220;2023-04-03T05:47:24;5.60;80.30
41324;DHT22;27073;51.128;4.220;2023-04-03T05:49:49;5.70;79.80
41324;DHT22;27073;51.128;4.220;2023-04-03T05:52:28;5.60;81.20
41324;DHT22;27073;51.128;4.220;2023-04-03T05:54:55;5.60;81.80
41324;DHT22;27073;51.128;4.220;2023-04-03T05:57:25;5.60;81.40
41324;DHT22;27073;51.128;4.220;2023-04-03T05:59:51;5.60;80.50
41324;DHT22;27073;51.128;4.220;2023-04-03T06:02:23;5.80;79.10
41324;DHT22;27073;51.128;4.220;2023-04-03T06:04:50;5.90;76.00
41324;DHT22;27073;51.128;4.220;2023-04-03T06:07:18;5.80;70.90
41324;DHT22;27073;51.128;4.220;2023-04-03T06:09:49;5.80;74.30
41324;DHT22;27073;51.128;4.220;2023-04-03T06:12:17;5.90;78.00
41324;DHT22;27073;51.128;4.220;2023-04-03T06:14:43;5.80;78.60
41324;DHT22;27073;51.128;4.220;2023-04-03T06:17:09;5.90;78.00
41324;DHT22;27073;51.128;4.220;2023-04-03T06:19:35;5.90;76.30
41324;DHT22;27073;51.128;4.220;2023-04-03T06:22:01;6.00;73.70
41324;DHT22;27073;51.128;4.220;2023-04-03T06:24:29;6.00;72.70
41324;DHT22;27073;51.128;4.220;2023-04-03T06:26:56;6.00;73.30
41324;DHT22;27073;51.128;4.220;2023-04-03T06:29:22;6.00;72.40
41324;DHT22;27073;51.128;4.220;2023-04-03T06:31:49;6.00;74.80
41324;DHT22;27073;51.128;4.220;2023-04-03T06:34:15;6.00;76.90
41324;DHT22;27073;51.128;4.220;2023-04-03T06:36:41;5.90;72.20
41324;DHT22;27073;51.128;4.220;2023-04-03T06:39:08;6.00;73.40
41324;DHT22;27073;51.128;4.220;2023-04-03T06:41:34;5.90;75.40
41324;DHT22;27073;51.128;4.220;2023-04-03T06:44:00;5.90;74.60
41324;DHT22;27073;51.128;4.220;2023-04-03T06:46:26;5.70;78.50
41324;DHT22;27073;51.128;4.220;2023-04-03T06:48:53;5.70;81.30
41324;DHT22;27073;51.128;4.220;2023-04-03T06:51:23;5.80;81.30
41324;DHT22;27073;51.128;4.220;2023-04-03T06:53:50;5.80;80.90
41324;DHT22;27073;51.128;4.220;2023-04-03T06:56:16;5.90;82.60
41324;DHT22;27073;51.128;4.220;2023-04-03T06:58:43;5.90;81.10
41324;DHT22;27073;51.128;4.220;2023-04-03T07:01:09;5.90;79.20
41324;DHT22;27073;51.128;4.220;2023-04-03T07:03:37;5.90;78.80
41324;DHT22;27073;51.128;4.220;2023-04-03T07:06:04;5.40;77.40
41324;DHT22;27073;51.128;4.220;2023-04-03T07:08:30;5.30;86.00
41324;DHT22;27073;51.128;4.220;2023-04-03T07:10:56;5.60;88.70
41324;DHT22;27073;51.128;4.220;2023-04-03T07:13:22;5.80;85.10
41324;DHT22;27073;51.128;4.220;2023-04-03T07:15:47;6.00;82.70
41324;DHT22;27073;51.128;4.220;2023-04-03T07:18:14;6.10;74.90
41324;DHT22;27073;51.128;4.220;2023-04-03T07:20:42;5.80;65.80
41324;DHT22;27073;51.128;4.220;2023-04-03T07:23:08;5.50;72.10
41324;DHT22;27073;51.128;4.220;2023-04-03T07:25:34;5.40;71.60
41324;DHT22;27073;51.128;4.220;2023-04-03T07:28:00;5.50;75.50
41324;DHT22;27073;51.128;4.220;2023-04-03T07:30:26;5.60;68.70
41324;DHT22;27073;51.128;4.220;2023-04-03T07:32:52;5.80;67.10
41324;DHT22;27073;51.128;4.220;2023-04-03T07:35:18;5.80;57.80
41324;DHT22;27073;51.128;4.220;2023-04-03T07:37:44;5.60;55.50
41324;DHT22;27073;51.128;4.220;2023-04-03T07:40:10;5.70;64.50
41324;DHT22;27073;51.128;4.220;2023-04-03T07:42:36;5.50;48.40
41324;DHT22;27073;51.128;4.220;2023-04-03T07:45:03;5.50;60.20
41324;DHT22;27073;51.128;4.220;2023-04-03T07:47:29;5.80;66.80
41324;DHT22;27073;51.128;4.220;2023-04-03T07:49:55;5.90;49.60
41324;DHT22;27073;51.128;4.220;2023-04-03T07:52:23;5.80;40.90
41324;DHT22;27073;51.128;4.220;2023-04-03T07:54:48;6.00;48.90
41324;DHT22;27073;51.128;4.220;2023-04-03T07:57:14;6.10;34.70
41324;DHT22;27073;51.128;4.220;2023-04-03T07:59:40;6.10;33.80
41324;DHT22;27073;51.128;4.220;2023-04-03T08:02:12;6.40;42.20
41324;DHT22;27073;51.128;4.220;2023-04-03T08:04:38;6.60;38.60
41324;DHT22;27073;51.128;4.220;2023-04-03T08:07:04;6.50;29.20
41324;DHT22;27073;51.128;4.220;2023-04-03T08:09:30;6.40;28.20
41324;DHT22;27073;51.128;4.220;2023-04-03T08:11:57;6.40;17.40
41324;DHT22;27073;51.128;4.220;2023-04-03T08:14:24;6.40;19.70
41324;DHT22;27073;51.128;4.220;2023-04-03T08:16:50;6.40;22.10
41324;DHT22;27073;51.128;4.220;2023-04-03T08:19:16;6.40;10.10
41324;DHT22;27073;51.128;4.220;2023-04-03T08:21:44;6.40;9.20
41324;DHT22;27073;51.128;4.220;2023-04-03T08:24:11;6.50;26.90
41324;DHT22;27073;51.128;4.220;2023-04-03T08:26:36;6.60;9.50
41324;DHT22;27073;51.128;4.220;2023-04-03T08:29:03;6.60;21.40
41324;DHT22;27073;51.128;4.220;2023-04-03T08:31:28;6.80;13.20
41324;DHT22;27073;51.128;4.220;2023-04-03T08:33:56;6.90;1.00
41324;DHT22;27073;51.128;4.220;2023-04-03T08:36:24;6.70;3.90
41324;DHT22;27073;51.128;4.220;2023-04-03T08:38:51;6.90;1.00
41324;DHT22;27073;51.128;4.220;2023-04-03T08:41:36;7.10;1.00
41324;DHT22;27073;51.128;4.220;2023-04-03T08:49:47;7.00;1.00
41324;DHT22;27073;51.128;4.220;2023-04-03T08:52:24;7.00;1.00
41324;DHT22;27073;51.128;4.220;2023-04-03T08:55:02;6.90;1.00
41324;DHT22;27073;51.128;4.220;2023-04-03T08:57:33;7.10;1.00
41324;DHT22;27073;51.128;4.220;2023-04-03T09:00:04;7.10;1.00
41324;DHT22;27073;51.128;4.220;2023-04-03T09:02:31;7.10;1.00
41324;DHT22;27073;51.128;4.220;2023-04-03T09:04:59;7.10;1.00
41324;DHT22;27073;51.128;4.220;2023-04-03T09:07:35;7.20;1.00
41324;DHT22;27073;51.128;4.220;2023-04-03T09:10:02;7.40;1.00
41324;DHT22;27073;51.128;4.220;2023-04-03T09:12:36;7.50;1.00
41324;DHT22;27073;51.128;4.220;2023-04-03T09:15:19;7.50;1.00
41324;DHT22;27073;51.128;4.220;2023-04-03T09:23:37;7.30;99.90
41324;DHT22;27073;51.128;4.220;2023-04-03T09:26:08;7.30;99.90
41324;DHT22;27073;51.128;4.220;2023-04-03T09:28:39;7.40;1.00
41324;DHT22;27073;51.128;4.220;2023-04-03T09:31:21;7.50;99.90
41324;DHT22;27073;51.128;4.220;2023-04-03T09:33:50;7.40;99.90
41324;DHT22;27073;51.128;4.220;2023-04-03T09:36:40;7.40;99.90
41324;DHT22;27073;51.128;4.220;2023-04-03T09:39:14;7.70;99.90
41324;DHT22;27073;51.128;4.220;2023-04-03T09:41:42;7.80;99.90
41324;DHT22;27073;51.128;4.220;2023-04-03T09:44:22;8.00;99.90
41324;DHT22;27073;51.128;4.220;2023-04-03T09:46:49;8.10;99.90
41324;DHT22;27073;51.128;4.220;2023-04-03T09:49:15;8.00;99.90
41324;DHT22;27073;51.128;4.220;2023-04-03T09:51:41;8.10;99.90
41324;DHT22;27073;51.128;4.220;2023-04-03T09:54:33;8.30;99.90
41324;DHT22;27073;51.128;4.220;2023-04-03T09:57:07;8.30;99.90
41324;DHT22;27073;51.128;4.220;2023-04-03T09:59:34;8.30;99.90
41324;DHT22;27073;51.128;4.220;2023-04-03T10:02:21;8.40;99.90
41324;DHT22;27073;51.128;4.220;2023-04-03T10:04:47;8.40;99.90
41324;DHT22;27073;51.128;4.220;2023-04-03T10:07:36;8.40;99.90
41324;DHT22;27073;51.128;4.220;2023-04-03T10:10:24;8.50;99.90
41324;DHT22;27073;51.128;4.220;2023-04-03T10:13:09;8.60;1.00
41324;DHT22;27073;51.128;4.220;2023-04-03T10:15:50;8.60;99.90
41324;DHT22;27073;51.128;4.220;2023-04-03T10:21:39;8.60;99.90
41324;DHT22;27073;51.128;4.220;2023-04-03T10:32:57;9.10;99.90
41324;DHT22;27073;51.128;4.220;2023-04-03T10:35:53;9.10;99.90
41324;DHT22;27073;51.128;4.220;2023-04-03T10:44:16;9.50;99.90
41324;DHT22;27073;51.128;4.220;2023-04-03T10:47:02;9.40;99.90
41324;DHT22;27073;51.128;4.220;2023-04-03T10:57:57;9.60;99.90
41324;DHT22;27073;51.128;4.220;2023-04-03T11:00:43;9.60;38.30
41324;DHT22;27073;51.128;4.220;2023-04-03T11:03:38;9.50;99.90
41324;DHT22;27073;51.128;4.220;2023-04-03T11:06:10;9.70;1.00
41324;DHT22;27073;51.128;4.220;2023-04-03T11:09:04;9.90;99.90
41324;DHT22;27073;51.128;4.220;2023-04-03T11:11:37;10.10;99.90
41324;DHT22;27073;51.128;4.220;2023-04-03T11:16:51;10.10;99.90
41324;DHT22;27073;51.128;4.220;2023-04-03T11:19:22;10.30;99.90
41324;DHT22;27073;51.128;4.220;2023-04-03T11:21:57;10.40;1.00
41324;DHT22;27073;51.128;4.220;2023-04-03T11:24:29;10.50;99.90
41324;DHT22;27073;51.128;4.220;2023-04-03T11:26:58;10.50;99.90
41324;DHT22;27073;51.128;4.220;2023-04-03T11:29:31;10.50;99.90
41324;DHT22;27073;51.128;4.220;2023-04-03T11:32:27;10.60;99.90
41324;DHT22;27073;51.128;4.220;2023-04-03T11:34:57;10.60;99.90
41324;DHT22;27073;51.128;4.220;2023-04-03T11:37:35;10.50;99.90
41324;DHT22;27073;51.128;4.220;2023-04-03T11:42:47;10.60;99.90
41324;DHT22;27073;51.128;4.220;2023-04-03T11:53:25;11.30;99.90
41324;DHT22;27073;51.128;4.220;2023-04-03T11:58:22;11.10;99.90
41324;DHT22;27073;51.128;4.220;2023-04-03T12:00:53;11.10;99.90
41324;DHT22;27073;51.128;4.220;2023-04-03T12:16:27;11.60;1.40
41324;DHT22;27073;51.128;4.220;2023-04-03T12:18:55;11.80;3.10
41324;DHT22;27073;51.128;4.220;2023-04-03T12:24:23;11.90;1.00
41324;DHT22;27073;51.128;4.220;2023-04-03T12:29:38;12.20;1.00
41324;DHT22;27073;51.128;4.220;2023-04-03T12:37:39;12.40;1.00
41324;DHT22;27073;51.128;4.220;2023-04-03T12:45:41;12.80;1.00
41324;DHT22;27073;51.128;4.220;2023-04-03T12:48:17;12.70;1.00
41324;DHT22;27073;51.128;4.220;2023-04-03T12:50:45;12.70;1.00
41324;DHT22;27073;51.128;4.220;2023-04-03T12:55:43;12.80;99.90
41324;DHT22;27073;51.128;4.220;2023-04-03T12:58:35;12.90;99.90
41324;DHT22;27073;51.128;4.220;2023-04-03T13:01:04;13.00;99.90
41324;DHT22;27073;51.128;4.220;2023-04-03T13:03:35;13.10;99.90
41324;DHT22;27073;51.128;4.220;2023-04-03T13:06:03;13.10;99.90
41324;DHT22;27073;51.128;4.220;2023-04-03T13:08:29;13.30;99.90
41324;DHT22;27073;51.128;4.220;2023-04-03T13:11:03;13.20;99.90
41324;DHT22;27073;51.128;4.220;2023-04-03T13:13:29;13.30;99.90
41324;DHT22;27073;51.128;4.220;2023-04-03T13:15:56;13.30;99.90
41324;DHT22;27073;51.128;4.220;2023-04-03T13:18:28;13.30;99.90
41324;DHT22;27073;51.128;4.220;2023-04-03T13:21:05;13.50;99.90
41324;DHT22;27073;51.128;4.220;2023-04-03T13:23:34;13.40;99.90
41324;DHT22;27073;51.128;4.220;2023-04-03T13:26:00;13.60;99.90
41324;DHT22;27073;51.128;4.220;2023-04-03T13:28:30;13.50;99.90
41324;DHT22;27073;51.128;4.220;2023-04-03T13:33:35;13.70;99.90
41324;DHT22;27073;51.128;4.220;2023-04-03T13:36:04;13.90;99.90
41324;DHT22;27073;51.128;4.220;2023-04-03T13:38:32;13.80;99.90
41324;DHT22;27073;51.128;4.220;2023-04-03T13:41:03;13.90;99.90
41324;DHT22;27073;51.128;4.220;2023-04-03T13:43:35;13.90;99.90
41324;DHT22;27073;51.128;4.220;2023-04-03T13:48:47;14.00;99.90
41324;DHT22;27073;51.128;4.220;2023-04-03T13:53:46;13.90;99.90
41324;DHT22;27073;51.128;4.220;2023-04-03T13:56:42;13.90;99.90
41324;DHT22;27073;51.128;4.220;2023-04-03T14:01:47;14.10;99.90
41324;DHT22;27073;51.128;4.220;2023-04-03T14:04:25;14.20;99.90
41324;DHT22;27073;51.128;4.220;2023-04-03T14:06:53;14.30;99.90
41324;DHT22;27073;51.128;4.220;2023-04-03T14:09:20;14.30;99.90
41324;DHT22;27073;51.128;4.220;2023-04-03T14:11:48;13.90;99.90
41324;DHT22;27073;51.128;4.220;2023-04-03T14:14:23;13.90;99.90
41324;DHT22;27073;51.128;4.220;2023-04-03T14:16:58;14.20;99.90
41324;DHT22;27073;51.128;4.220;2023-04-03T14:19:28;14.30;99.90
41324;DHT22;27073;51.128;4.220;2023-04-03T14:21:56;14.60;99.90
41324;DHT22;27073;51.128;4.220;2023-04-03T14:24:23;14.60;99.90
41324;DHT22;27073;51.128;4.220;2023-04-03T14:26:51;14.80;99.90
41324;DHT22;27073;51.128;4.220;2023-04-03T14:29:17;14.90;99.90
41324;DHT22;27073;51.128;4.220;2023-04-03T14:31:44;15.10;99.90
41324;DHT22;27073;51.128;4.220;2023-04-03T14:34:14;15.30;99.90
41324;DHT22;27073;51.128;4.220;2023-04-03T14:36:42;15.90;99.90
41324;DHT22;27073;51.128;4.220;2023-04-03T14:39:16;16.00;99.90
41324;DHT22;27073;51.128;4.220;2023-04-03T14:41:42;16.80;99.90
41324;DHT22;27073;51.128;4.220;2023-04-03T14:44:08;17.20;99.90
41324;DHT22;27073;51.128;4.220;2023-04-03T14:46:36;18.30;99.90
41324;DHT22;27073;51.128;4.220;2023-04-03T14:49:03;20.30;99.90
41324;DHT22;27073;51.128;4.220;2023-04-03T14:51:33;21.50;99.90
41324;DHT22;27073;51.128;4.220;2023-04-03T14:53:59;22.90;99.90
41324;DHT22;27073;51.128;4.220;2023-04-03T14:56:28;22.50;99.90
41324;DHT22;27073;51.128;4.220;2023-04-03T14:58:59;21.90;99.90
41324;DHT22;27073;51.128;4.220;2023-04-03T15:01:27;21.90;99.90
41324;DHT22;27073;51.128;4.220;2023-04-03T15:03:53;23.10;99.90
41324;DHT22;27073;51.128;4.220;2023-04-03T15:06:19;22.50;99.90
41324;DHT22;27073;51.128;4.220;2023-04-03T15:08:47;23.00;99.90
41324;DHT22;27073;51.128;4.220;2023-04-03T15:11:13;25.60;99.90
41324;DHT22;27073;51.128;4.220;2023-04-03T15:13:40;25.20;99.90
41324;DHT22;27073;51.128;4.220;2023-04-03T15:16:17;26.60;99.90
41324;DHT22;27073;51.128;4.220;2023-04-03T15:18:44;26.60;99.90
41324;DHT22;27073;51.128;4.220;2023-04-03T15:21:10;25.90;99.90
41324;DHT22;27073;51.128;4.220;2023-04-03T15:23:36;24.80;99.90
41324;DHT22;27073;51.128;4.220;2023-04-03T15:26:02;23.90;99.90
41324;DHT22;27073;51.128;4.220;2023-04-03T15:28:32;23.30;99.90
41324;DHT22;27073;51.128;4.220;2023-04-03T15:30:59;24.40;99.90
41324;DHT22;27073;51.128;4.220;2023-04-03T15:33:26;23.40;99.90
41324;DHT22;27073;51.128;4.220;2023-04-03T15:35:51;24.20;99.90
41324;DHT22;27073;51.128;4.220;2023-04-03T15:38:17;24.10;99.90
41324;DHT22;27073;51.128;4.220;2023-04-03T15:40:43;23.70;99.90
41324;DHT22;27073;51.128;4.220;2023-04-03T15:43:09;25.60;99.90
41324;DHT22;27073;51.128;4.220;2023-04-03T15:45:36;24.00;99.90
41324;DHT22;27073;51.128;4.220;2023-04-03T15:48:03;24.60;99.90
41324;DHT22;27073;51.128;4.220;2023-04-03T15:50:31;24.00;99.90
41324;DHT22;27073;51.128;4.220;2023-04-03T15:52:57;24.30;99.90
41324;DHT22;27073;51.128;4.220;2023-04-03T15:55:28;25.90;99.90
41324;DHT22;27073;51.128;4.220;2023-04-03T15:57:55;26.20;99.90
41324;DHT22;27073;51.128;4.220;2023-04-03T16:00:22;26.30;99.90
41324;DHT22;27073;51.128;4.220;2023-04-03T16:02:50;24.80;99.90
41324;DHT22;27073;51.128;4.220;2023-04-03T16:05:18;25.50;99.90
41324;DHT22;27073;51.128;4.220;2023-04-03T16:07:45;24.30;99.90
41324;DHT22;27073;51.128;4.220;2023-04-03T16:10:12;25.30;99.90
41324;DHT22;27073;51.128;4.220;2023-04-03T16:12:39;25.50;99.90
41324;DHT22;27073;51.128;4.220;2023-04-03T16:15:06;25.80;99.90
41324;DHT22;27073;51.128;4.220;2023-04-03T16:17:33;26.00;99.90
41324;DHT22;27073;51.128;4.220;2023-04-03T16:20:01;26.00;99.90
41324;DHT22;27073;51.128;4.220;2023-04-03T16:22:29;26.00;99.90
41324;DHT22;27073;51.128;4.220;2023-04-03T16:24:56;25.70;99.90
41324;DHT22;27073;51.128;4.220;2023-04-03T16:27:22;26.30;99.90
41324;DHT22;27073;51.128;4.220;2023-04-03T16:29:54;25.90;99.90
41324;DHT22;27073;51.128;4.220;2023-04-03T16:32:21;26.50;99.90
41324;DHT22;27073;51.128;4.220;2023-04-03T16:34:48;25.30;99.90
41324;DHT22;27073;51.128;4.220;2023-04-03T16:37:15;25.00;99.90
41324;DHT22;27073;51.128;4.220;2023-04-03T16:39:41;24.40;99.90
41324;DHT22;27073;51.128;4.220;2023-04-03T16:42:06;22.60;99.90
41324;DHT22;27073;51.128;4.220;2023-04-03T16:44:34;22.20;99.90
41324;DHT22;27073;51.128;4.220;2023-04-03T16:47:03;22.40;99.90
41324;DHT22;27073;51.128;4.220;2023-04-03T16:49:29;24.20;99.90
41324;DHT22;27073;51.128;4.220;2023-04-03T16:51:58;25.20;99.90
41324;DHT22;27073;51.128;4.220;2023-04-03T16:54:24;25.10;99.90
41324;DHT22;27073;51.128;4.220;2023-04-03T16:56:50;24.90;99.90
41324;DHT22;27073;51.128;4.220;2023-04-03T16:59:16;24.70;99.90
41324;DHT22;27073;51.128;4.220;2023-04-03T17:01:42;24.90;99.90
41324;DHT22;27073;51.128;4.220;2023-04-03T17:04:08;23.40;99.90
41324;DHT22;27073;51.128;4.220;2023-04-03T17:06:34;21.90;99.90
41324;DHT22;27073;51.128;4.220;2023-04-03T17:09:00;22.70;99.90
41324;DHT22;27073;51.128;4.220;2023-04-03T17:11:26;23.50;99.90
41324;DHT22;27073;51.128;4.220;2023-04-03T17:13:53;23.80;99.90
41324;DHT22;27073;51.128;4.220;2023-04-03T17:16:19;23.80;99.90
41324;DHT22;27073;51.128;4.220;2023-04-03T17:18:45;21.90;99.90
41324;DHT22;27073;51.128;4.220;2023-04-03T17:21:12;22.10;99.90
41324;DHT22;27073;51.128;4.220;2023-04-03T17:23:39;20.50;99.90
41324;DHT22;27073;51.128;4.220;2023-04-03T17:26:06;19.80;99.90
41324;DHT22;27073;51.128;4.220;2023-04-03T17:28:32;19.80;99.90
41324;DHT22;27073;51.128;4.220;2023-04-03T17:30:59;20.70;99.90
41324;DHT22;27073;51.128;4.220;2023-04-03T17:33:27;21.30;99.90
41324;DHT22;27073;51.128;4.220;2023-04-03T17:36:03;20.30;99.90